Terminal Aerodrome Forecast
Issued by NWS

Home | Current Version | Previous Version | Text Only | Print | Product List | Glossary On
Versions: 1 2 3 4 5 6 7 8 9 10 11 12
513
FTUS45 KRIW 271722
TAFJAC
TAF
KJAC 271722Z 2718/2818 21010G18KT P6SM VCTS SCT040 BKN080CB
      TEMPO 2718/2722 24020G30KT
     FM272300 35012KT P6SM VCSH SCT050 BKN080
     FM280600 VRB05KT P6SM BKN100
     FM281600 20008KT P6SM SCT060 BKN080
      AMD LTD TO CLD VIS AND WIND=

USA.gov is the U.S. government's official web portal to all federal, state and local government web resources and services.